sensor_id;sensor_type;location;lat;lon;timestamp;pressure;altitude;pressure_sealevel;temperature;humidity
68226;BME280;55045;49.410;11.030;2022-10-01T00:00:10;97900.75;;;4.47;100.00
68226;BME280;55045;49.410;11.030;2022-10-01T00:03:14;97905.22;;;4.41;100.00
68226;BME280;55045;49.410;11.030;2022-10-01T00:06:19;97897.03;;;4.26;100.00
68226;BME280;55045;49.410;11.030;2022-10-01T00:09:24;97899.94;;;4.14;100.00
68226;BME280;55045;49.410;11.030;2022-10-01T00:12:27;97899.94;;;4.14;100.00
68226;BME280;55045;49.410;11.030;2022-10-01T00:15:31;97883.72;;;4.12;100.00
68226;BME280;55045;49.410;11.030;2022-10-01T00:18:35;97892.41;;;4.07;100.00
68226;BME280;55045;49.410;11.030;2022-10-01T00:21:39;97880.44;;;4.07;100.00
68226;BME280;55045;49.410;11.030;2022-10-01T00:24:44;97904.88;;;4.53;100.00
68226;BME280;55045;49.410;11.030;2022-10-01T00:27:48;97903.69;;;4.33;100.00
68226;BME280;55045;49.410;11.030;2022-10-01T00:30:51;97902.03;;;4.32;100.00
68226;BME280;55045;49.410;11.030;2022-10-01T00:33:56;97900.16;;;4.38;100.00
68226;BME280;55045;49.410;11.030;2022-10-01T00:37:00;97902.91;;;4.31;100.00
68226;BME280;55045;49.410;11.030;2022-10-01T00:40:06;97901.19;;;4.32;100.00
68226;BME280;55045;49.410;11.030;2022-10-01T00:43:19;97903.94;;;4.24;100.00
68226;BME280;55045;49.410;11.030;2022-10-01T00:46:25;97868.47;;;4.06;100.00
68226;BME280;55045;49.410;11.030;2022-10-01T00:49:32;97895.88;;;4.05;100.00
68226;BME280;55045;49.410;11.030;2022-10-01T00:52:39;97896.25;;;4.24;100.00
68226;BME280;55045;49.410;11.030;2022-10-01T00:55:47;97894.16;;;4.06;100.00
68226;BME280;55045;49.410;11.030;2022-10-01T00:58:53;97905.84;;;4.16;100.00
68226;BME280;55045;49.410;11.030;2022-10-01T01:01:56;97896.56;;;4.12;100.00
68226;BME280;55045;49.410;11.030;2022-10-01T01:05:02;97897.38;;;4.14;100.00
68226;BME280;55045;49.410;11.030;2022-10-01T01:08:06;97883.97;;;4.03;100.00
68226;BME280;55045;49.410;11.030;2022-10-01T01:11:17;97890.22;;;3.93;100.00
68226;BME280;55045;49.410;11.030;2022-10-01T01:14:29;97880.97;;;4.18;100.00
68226;BME280;55045;49.410;11.030;2022-10-01T01:17:42;97876.78;;;4.16;100.00
68226;BME280;55045;49.410;11.030;2022-10-01T01:21:04;97883.78;;;3.76;100.00
68226;BME280;55045;49.410;11.030;2022-10-01T01:24:46;97879.34;;;4.16;100.00
68226;BME280;55045;49.410;11.030;2022-10-01T01:28:02;97875.47;;;4.01;100.00
68226;BME280;55045;49.410;11.030;2022-10-01T01:31:12;97867.34;;;3.84;100.00
68226;BME280;55045;49.410;11.030;2022-10-01T01:34:24;97869.56;;;3.97;100.00
68226;BME280;55045;49.410;11.030;2022-10-01T01:37:31;97866.47;;;3.85;100.00
68226;BME280;55045;49.410;11.030;2022-10-01T01:40:37;97866.13;;;3.64;100.00
68226;BME280;55045;49.410;11.030;2022-10-01T01:43:44;97861.16;;;3.58;100.00
68226;BME280;55045;49.410;11.030;2022-10-01T01:46:50;97830.22;;;3.64;100.00
68226;BME280;55045;49.410;11.030;2022-10-01T01:49:58;97867.84;;;4.30;100.00
68226;BME280;55045;49.410;11.030;2022-10-01T01:53:04;97856.59;;;4.03;100.00
68226;BME280;55045;49.410;11.030;2022-10-01T01:56:07;97857.63;;;3.96;100.00
68226;BME280;55045;49.410;11.030;2022-10-01T01:59:13;97856.66;;;4.00;100.00
68226;BME280;55045;49.410;11.030;2022-10-01T02:02:22;97754.91;;;3.00;100.00
68226;BME280;55045;49.410;11.030;2022-10-01T02:05:31;97848.50;;;3.85;100.00
68226;BME280;55045;49.410;11.030;2022-10-01T02:08:46;97842.34;;;3.92;100.00
68226;BME280;55045;49.410;11.030;2022-10-01T02:11:59;97840.59;;;3.60;100.00
68226;BME280;55045;49.410;11.030;2022-10-01T02:15:15;97841.63;;;3.53;100.00
68226;BME280;55045;49.410;11.030;2022-10-01T02:18:29;97840.66;;;3.58;100.00
68226;BME280;55045;49.410;11.030;2022-10-01T02:21:39;97834.88;;;3.83;100.00
68226;BME280;55045;49.410;11.030;2022-10-01T02:24:46;97828.63;;;3.93;100.00
68226;BME280;55045;49.410;11.030;2022-10-01T02:27:52;97840.78;;;3.52;100.00
68226;BME280;55045;49.410;11.030;2022-10-01T02:31:03;97838.19;;;4.19;100.00
68226;BME280;55045;49.410;11.030;2022-10-01T02:34:07;97831.34;;;3.87;100.00
68226;BME280;55045;49.410;11.030;2022-10-01T02:37:15;97824.47;;;3.89;100.00
68226;BME280;55045;49.410;11.030;2022-10-01T02:40:21;97826.34;;;3.82;100.00
68226;BME280;55045;49.410;11.030;2022-10-01T02:43:31;97797.69;;;3.66;100.00
68226;BME280;55045;49.410;11.030;2022-10-01T02:46:47;97822.16;;;3.80;100.00
68226;BME280;55045;49.410;11.030;2022-10-01T02:49:54;97813.66;;;3.76;100.00
68226;BME280;55045;49.410;11.030;2022-10-01T02:53:01;97789.88;;;3.71;100.00
68226;BME280;55045;49.410;11.030;2022-10-01T02:56:07;97798.38;;;3.73;100.00
68226;BME280;55045;49.410;11.030;2022-10-01T02:59:13;97815.47;;;4.05;100.00
68226;BME280;55045;49.410;11.030;2022-10-01T03:02:19;97821.88;;;4.21;100.00
68226;BME280;55045;49.410;11.030;2022-10-01T03:05:25;97792.72;;;3.93;100.00
68226;BME280;55045;49.410;11.030;2022-10-01T03:08:28;97809.47;;;3.73;100.00
68226;BME280;55045;49.410;11.030;2022-10-01T03:11:33;97801.06;;;3.68;100.00
68226;BME280;55045;49.410;11.030;2022-10-01T03:14:37;97809.78;;;3.61;100.00
68226;BME280;55045;49.410;11.030;2022-10-01T03:17:45;97811.47;;;3.62;100.00
68226;BME280;55045;49.410;11.030;2022-10-01T03:20:53;97801.31;;;3.59;100.00
68226;BME280;55045;49.410;11.030;2022-10-01T03:23:57;97802.81;;;3.66;100.00
68226;BME280;55045;49.410;11.030;2022-10-01T03:27:02;97802.19;;;3.57;100.00
68226;BME280;55045;49.410;11.030;2022-10-01T03:30:07;97799.31;;;3.70;100.00
68226;BME280;55045;49.410;11.030;2022-10-01T03:35:02;97793.38;;;3.68;100.00
68226;BME280;55045;49.410;11.030;2022-10-01T03:38:05;97793.69;;;3.89;100.00
68226;BME280;55045;49.410;11.030;2022-10-01T03:41:09;97791.47;;;3.75;100.00
68226;BME280;55045;49.410;11.030;2022-10-01T03:44:29;97794.00;;;3.76;100.00
68226;BME280;55045;49.410;11.030;2022-10-01T03:47:33;97792.16;;;3.82;100.00
68226;BME280;55045;49.410;11.030;2022-10-01T03:50:38;97779.50;;;3.75;100.00
68226;BME280;55045;49.410;11.030;2022-10-01T03:53:42;97791.47;;;3.75;100.00
68226;BME280;55045;49.410;11.030;2022-10-01T03:56:45;97789.47;;;4.17;100.00
68226;BME280;55045;49.410;11.030;2022-10-01T03:59:51;97779.50;;;4.07;100.00
68226;BME280;55045;49.410;11.030;2022-10-01T04:02:59;97778.31;;;3.89;100.00
68226;BME280;55045;49.410;11.030;2022-10-01T04:06:05;97779.38;;;4.11;100.00
68226;BME280;55045;49.410;11.030;2022-10-01T04:09:09;97782.34;;;4.56;100.00
68226;BME280;55045;49.410;11.030;2022-10-01T04:12:13;97768.94;;;4.47;100.00
68226;BME280;55045;49.410;11.030;2022-10-01T04:15:18;97769.44;;;4.30;100.00
68226;BME280;55045;49.410;11.030;2022-10-01T04:18:23;97752.47;;;4.54;100.00
68226;BME280;55045;49.410;11.030;2022-10-01T04:21:29;97757.78;;;4.48;100.00
68226;BME280;55045;49.410;11.030;2022-10-01T04:24:34;97750.66;;;4.29;100.00
68226;BME280;55045;49.410;11.030;2022-10-01T04:27:38;97758.50;;;4.81;100.00
68226;BME280;55045;49.410;11.030;2022-10-01T04:30:43;97726.78;;;4.26;100.00
68226;BME280;55045;49.410;11.030;2022-10-01T04:33:47;97765.75;;;4.39;100.00
68226;BME280;55045;49.410;11.030;2022-10-01T04:36:52;97762.19;;;4.72;100.00
68226;BME280;55045;49.410;11.030;2022-10-01T04:39:56;97764.59;;;4.50;100.00
68226;BME280;55045;49.410;11.030;2022-10-01T04:43:01;97759.75;;;4.68;100.00
68226;BME280;55045;49.410;11.030;2022-10-01T04:46:06;97761.34;;;4.44;100.00
68226;BME280;55045;49.410;11.030;2022-10-01T04:49:10;97750.44;;;4.65;100.00
68226;BME280;55045;49.410;11.030;2022-10-01T04:52:15;97754.63;;;4.68;100.00
68226;BME280;55045;49.410;11.030;2022-10-01T04:55:19;97748.19;;;4.54;100.00
68226;BME280;55045;49.410;11.030;2022-10-01T04:58:24;97755.66;;;4.62;100.00
68226;BME280;55045;49.410;11.030;2022-10-01T05:01:28;97758.66;;;4.47;100.00
68226;BME280;55045;49.410;11.030;2022-10-01T05:04:34;97767.72;;;4.60;100.00
68226;BME280;55045;49.410;11.030;2022-10-01T05:07:38;97769.84;;;4.46;100.00
68226;BME280;55045;49.410;11.030;2022-10-01T05:10:42;97769.72;;;4.50;100.00
68226;BME280;55045;49.410;11.030;2022-10-01T05:13:45;97751.38;;;4.62;100.00
68226;BME280;55045;49.410;11.030;2022-10-01T05:16:48;97769.94;;;4.43;100.00
68226;BME280;55045;49.410;11.030;2022-10-01T05:19:52;97772.09;;;4.56;100.00
68226;BME280;55045;49.410;11.030;2022-10-01T05:23:02;97753.97;;;4.61;100.00
68226;BME280;55045;49.410;11.030;2022-10-01T05:26:15;97756.38;;;5.20;100.00
68226;BME280;55045;49.410;11.030;2022-10-01T05:29:23;97765.06;;;4.89;100.00
68226;BME280;55045;49.410;11.030;2022-10-01T05:32:29;97767.63;;;4.89;100.00
68226;BME280;55045;49.410;11.030;2022-10-01T05:35:33;97765.25;;;5.11;100.00
68226;BME280;55045;49.410;11.030;2022-10-01T05:38:38;97765.97;;;5.41;100.00
68226;BME280;55045;49.410;11.030;2022-10-01T05:41:43;97767.28;;;5.28;100.00
68226;BME280;55045;49.410;11.030;2022-10-01T05:44:46;97766.03;;;5.40;100.00
68226;BME280;55045;49.410;11.030;2022-10-01T05:47:58;97762.66;;;5.38;100.00
68226;BME280;55045;49.410;11.030;2022-10-01T05:51:02;97756.38;;;5.46;100.00
68226;BME280;55045;49.410;11.030;2022-10-01T05:54:18;97759.91;;;5.44;100.00
68226;BME280;55045;49.410;11.030;2022-10-01T05:57:24;97767.88;;;5.61;100.00
68226;BME280;55045;49.410;11.030;2022-10-01T06:00:29;97762.13;;;5.28;100.00
68226;BME280;55045;49.410;11.030;2022-10-01T06:03:32;97759.38;;;5.59;100.00
68226;BME280;55045;49.410;11.030;2022-10-01T06:06:36;97741.94;;;5.92;100.00
68226;BME280;55045;49.410;11.030;2022-10-01T06:09:41;97749.75;;;5.89;100.00
68226;BME280;55045;49.410;11.030;2022-10-01T06:12:46;97659.13;;;5.33;100.00
68226;BME280;55045;49.410;11.030;2022-10-01T06:15:51;97750.16;;;6.03;100.00
68226;BME280;55045;49.410;11.030;2022-10-01T06:18:55;97730.66;;;5.96;100.00
68226;BME280;55045;49.410;11.030;2022-10-01T06:21:59;97744.66;;;6.13;100.00
68226;BME280;55045;49.410;11.030;2022-10-01T06:25:04;97741.97;;;6.39;100.00
68226;BME280;55045;49.410;11.030;2022-10-01T06:28:11;97715.44;;;6.37;100.00
68226;BME280;55045;49.410;11.030;2022-10-01T06:31:15;97709.16;;;6.21;100.00
68226;BME280;55045;49.410;11.030;2022-10-01T06:34:21;97711.00;;;6.62;100.00
68226;BME280;55045;49.410;11.030;2022-10-01T06:37:24;97714.97;;;6.49;100.00
68226;BME280;55045;49.410;11.030;2022-10-01T06:40:30;97725.47;;;6.67;100.00
68226;BME280;55045;49.410;11.030;2022-10-01T06:43:33;97723.81;;;6.64;100.00
68226;BME280;55045;49.410;11.030;2022-10-01T06:46:37;97723.13;;;6.82;100.00
68226;BME280;55045;49.410;11.030;2022-10-01T06:49:40;97711.94;;;7.04;100.00
68226;BME280;55045;49.410;11.030;2022-10-01T06:52:49;97710.63;;;7.15;100.00
68226;BME280;55045;49.410;11.030;2022-10-01T06:55:54;97708.13;;;6.92;100.00
68226;BME280;55045;49.410;11.030;2022-10-01T06:58:58;97710.09;;;7.07;100.00
68226;BME280;55045;49.410;11.030;2022-10-01T07:02:01;97713.50;;;7.08;100.00
68226;BME280;55045;49.410;11.030;2022-10-01T07:05:05;97717.78;;;6.87;100.00
68226;BME280;55045;49.410;11.030;2022-10-01T07:08:09;97716.47;;;6.77;100.00
68226;BME280;55045;49.410;11.030;2022-10-01T07:11:15;97712.84;;;7.03;100.00
68226;BME280;55045;49.410;11.030;2022-10-01T07:14:20;97717.38;;;6.76;100.00
68226;BME280;55045;49.410;11.030;2022-10-01T07:17:23;97717.84;;;7.07;100.00
68226;BME280;55045;49.410;11.030;2022-10-01T07:20:27;97714.28;;;7.10;100.00
68226;BME280;55045;49.410;11.030;2022-10-01T07:23:31;97713.19;;;6.95;100.00
68226;BME280;55045;49.410;11.030;2022-10-01T07:26:35;97702.47;;;7.25;100.00
68226;BME280;55045;49.410;11.030;2022-10-01T07:29:39;97717.38;;;6.98;100.00
68226;BME280;55045;49.410;11.030;2022-10-01T07:32:43;97717.19;;;7.43;100.00
68226;BME280;55045;49.410;11.030;2022-10-01T07:35:46;97716.56;;;7.38;100.00
68226;BME280;55045;49.410;11.030;2022-10-01T07:38:50;97710.50;;;7.18;100.00
68226;BME280;55045;49.410;11.030;2022-10-01T07:41:54;97698.50;;;7.17;100.00
68226;BME280;55045;49.410;11.030;2022-10-01T07:44:58;97713.00;;;7.61;100.00
68226;BME280;55045;49.410;11.030;2022-10-01T07:48:02;97688.50;;;7.50;100.00
68226;BME280;55045;49.410;11.030;2022-10-01T07:51:05;97667.34;;;7.42;100.00
68226;BME280;55045;49.410;11.030;2022-10-01T07:54:09;97713.66;;;7.45;100.00
68226;BME280;55045;49.410;11.030;2022-10-01T07:57:16;97708.31;;;7.70;100.00
68226;BME280;55045;49.410;11.030;2022-10-01T08:00:21;97715.47;;;7.43;100.00
68226;BME280;55045;49.410;11.030;2022-10-01T08:03:25;97728.28;;;7.45;100.00
68226;BME280;55045;49.410;11.030;2022-10-01T08:06:28;97736.44;;;7.36;100.00
68226;BME280;55045;49.410;11.030;2022-10-01T08:09:31;97740.63;;;7.38;100.00
68226;BME280;55045;49.410;11.030;2022-10-01T08:12:36;97745.84;;;7.37;100.00
68226;BME280;55045;49.410;11.030;2022-10-01T08:15:39;97741.47;;;7.39;100.00
68226;BME280;55045;49.410;11.030;2022-10-01T08:18:42;97739.91;;;7.35;100.00
68226;BME280;55045;49.410;11.030;2022-10-01T08:21:46;97742.25;;;7.41;100.00
68226;BME280;55045;49.410;11.030;2022-10-01T08:24:49;97745.59;;;7.43;100.00
68226;BME280;55045;49.410;11.030;2022-10-01T08:27:53;97746.69;;;7.37;100.00
68226;BME280;55045;49.410;11.030;2022-10-01T08:30:57;97740.75;;;7.35;100.00
68226;BME280;55045;49.410;11.030;2022-10-01T08:34:00;97731.47;;;7.31;100.00
68226;BME280;55045;49.410;11.030;2022-10-01T08:37:04;97744.28;;;7.73;100.00
68226;BME280;55045;49.410;11.030;2022-10-01T08:40:08;97745.22;;;7.52;100.00
68226;BME280;55045;49.410;11.030;2022-10-01T08:43:24;97739.53;;;7.64;100.00
68226;BME280;55045;49.410;11.030;2022-10-01T08:46:33;97701.84;;;7.60;100.00
68226;BME280;55045;49.410;11.030;2022-10-01T08:49:57;97682.69;;;7.45;100.00
68226;BME280;55045;49.410;11.030;2022-10-01T08:53:08;97736.81;;;7.88;100.00
68226;BME280;55045;49.410;11.030;2022-10-01T08:56:19;97706.94;;;7.82;100.00
68226;BME280;55045;49.410;11.030;2022-10-01T08:59:38;97728.34;;;7.84;100.00
68226;BME280;55045;49.410;11.030;2022-10-01T09:02:44;97722.56;;;7.79;100.00
68226;BME280;55045;49.410;11.030;2022-10-01T09:05:58;97712.66;;;7.89;100.00
68226;BME280;55045;49.410;11.030;2022-10-01T09:09:28;97720.03;;;7.98;100.00
68226;BME280;55045;49.410;11.030;2022-10-01T09:12:44;97704.81;;;7.71;100.00
68226;BME280;55045;49.410;11.030;2022-10-01T09:15:56;97702.75;;;7.79;100.00
68226;BME280;55045;49.410;11.030;2022-10-01T09:19:11;97693.50;;;8.13;100.00
68226;BME280;55045;49.410;11.030;2022-10-01T09:22:24;97699.41;;;7.96;100.00
68226;BME280;55045;49.410;11.030;2022-10-01T09:25:30;97690.97;;;7.93;100.00
68226;BME280;55045;49.410;11.030;2022-10-01T09:28:38;97677.84;;;7.78;100.00
68226;BME280;55045;49.410;11.030;2022-10-01T09:35:16;97665.34;;;8.07;100.00
68226;BME280;55045;49.410;11.030;2022-10-01T09:38:26;97658.72;;;8.20;100.00
68226;BME280;55045;49.410;11.030;2022-10-01T09:41:33;97650.63;;;8.28;100.00
68226;BME280;55045;49.410;11.030;2022-10-01T09:44:36;97640.34;;;8.26;100.00
68226;BME280;55045;49.410;11.030;2022-10-01T09:47:41;97650.56;;;8.48;100.00
68226;BME280;55045;49.410;11.030;2022-10-01T09:50:49;97637.31;;;8.18;100.00
68226;BME280;55045;49.410;11.030;2022-10-01T09:54:00;97631.69;;;8.27;100.00
68226;BME280;55045;49.410;11.030;2022-10-01T09:57:06;97640.56;;;8.22;100.00
68226;BME280;55045;49.410;11.030;2022-10-01T10:00:15;97638.34;;;8.14;100.00
68226;BME280;55045;49.410;11.030;2022-10-01T10:03:21;97628.22;;;8.09;100.00
68226;BME280;55045;49.410;11.030;2022-10-01T10:06:28;97624.50;;;8.15;100.00
68226;BME280;55045;49.410;11.030;2022-10-01T10:09:34;97623.75;;;8.13;100.00
68226;BME280;55045;49.410;11.030;2022-10-01T10:12:39;97612.50;;;8.14;100.00
68226;BME280;55045;49.410;11.030;2022-10-01T10:15:49;97608.06;;;8.18;100.00
68226;BME280;55045;49.410;11.030;2022-10-01T10:18:55;97619.28;;;8.17;100.00
68226;BME280;55045;49.410;11.030;2022-10-01T10:22:11;97620.81;;;8.21;100.00
68226;BME280;55045;49.410;11.030;2022-10-01T10:25:20;97614.75;;;8.22;100.00
68226;BME280;55045;49.410;11.030;2022-10-01T10:28:25;97612.91;;;8.24;100.00
68226;BME280;55045;49.410;11.030;2022-10-01T10:31:35;97608.38;;;8.29;100.00
68226;BME280;55045;49.410;11.030;2022-10-01T10:34:43;97603.19;;;8.48;100.00
68226;BME280;55045;49.410;11.030;2022-10-01T10:37:51;97622.66;;;8.55;100.00
68226;BME280;55045;49.410;11.030;2022-10-01T10:40:55;97614.19;;;8.70;100.00
68226;BME280;55045;49.410;11.030;2022-10-01T10:44:02;97611.16;;;8.79;100.00
68226;BME280;55045;49.410;11.030;2022-10-01T10:47:09;97581.72;;;8.64;100.00
68226;BME280;55045;49.410;11.030;2022-10-01T10:50:25;97610.63;;;8.90;100.00
68226;BME280;55045;49.410;11.030;2022-10-01T10:53:41;97589.78;;;8.76;100.00
68226;BME280;55045;49.410;11.030;2022-10-01T10:56:54;97605.59;;;9.04;100.00
68226;BME280;55045;49.410;11.030;2022-10-01T10:59:58;97603.91;;;8.86;100.00
68226;BME280;55045;49.410;11.030;2022-10-01T11:03:04;97607.59;;;8.99;100.00
68226;BME280;55045;49.410;11.030;2022-10-01T11:06:10;97605.22;;;8.94;100.00
68226;BME280;55045;49.410;11.030;2022-10-01T11:09:17;97602.34;;;9.01;100.00
68226;BME280;55045;49.410;11.030;2022-10-01T11:12:29;97596.53;;;8.95;100.00
68226;BME280;55045;49.410;11.030;2022-10-01T11:19:09;97585.59;;;8.90;100.00
68226;BME280;55045;49.410;11.030;2022-10-01T11:22:32;97556.03;;;8.79;100.00
68226;BME280;55045;49.410;11.030;2022-10-01T11:25:50;97588.13;;;8.92;100.00
68226;BME280;55045;49.410;11.030;2022-10-01T11:29:07;97586.13;;;8.97;100.00
68226;BME280;55045;49.410;11.030;2022-10-01T11:32:20;97599.97;;;9.13;100.00
68226;BME280;55045;49.410;11.030;2022-10-01T11:35:48;97610.84;;;9.03;100.00
68226;BME280;55045;49.410;11.030;2022-10-01T11:38:59;97592.13;;;8.98;100.00
68226;BME280;55045;49.410;11.030;2022-10-01T11:42:08;97579.66;;;9.06;100.00
68226;BME280;55045;49.410;11.030;2022-10-01T11:45:15;97608.22;;;9.37;100.00
68226;BME280;55045;49.410;11.030;2022-10-01T11:48:26;97607.28;;;9.38;100.00
68226;BME280;55045;49.410;11.030;2022-10-01T11:51:35;97606.53;;;9.53;100.00
68226;BME280;55045;49.410;11.030;2022-10-01T11:54:53;97594.84;;;9.62;100.00
68226;BME280;55045;49.410;11.030;2022-10-01T11:58:05;97598.19;;;9.64;100.00
68226;BME280;55045;49.410;11.030;2022-10-01T12:01:32;97587.75;;;9.66;100.00
68226;BME280;55045;49.410;11.030;2022-10-01T12:04:43;97580.16;;;9.78;100.00
68226;BME280;55045;49.410;11.030;2022-10-01T12:07:52;97583.84;;;9.90;100.00
68226;BME280;55045;49.410;11.030;2022-10-01T12:11:05;97577.00;;;9.89;100.00
68226;BME280;55045;49.410;11.030;2022-10-01T12:14:17;97580.34;;;9.91;100.00
68226;BME280;55045;49.410;11.030;2022-10-01T12:17:25;97586.03;;;10.14;100.00
68226;BME280;55045;49.410;11.030;2022-10-01T12:20:34;97589.22;;;10.03;100.00
68226;BME280;55045;49.410;11.030;2022-10-01T12:23:44;97583.78;;;10.07;100.00
68226;BME280;55045;49.410;11.030;2022-10-01T12:26:59;97580.44;;;10.05;100.00
68226;BME280;55045;49.410;11.030;2022-10-01T12:30:10;97566.81;;;10.02;100.00
68226;BME280;55045;49.410;11.030;2022-10-01T12:33:33;97584.69;;;10.38;100.00
68226;BME280;55045;49.410;11.030;2022-10-01T12:36:47;97574.47;;;10.51;100.00
68226;BME280;55045;49.410;11.030;2022-10-01T12:40:00;97586.81;;;10.61;100.00
68226;BME280;55045;49.410;11.030;2022-10-01T12:43:25;97593.34;;;10.68;100.00
68226;BME280;55045;49.410;11.030;2022-10-01T12:46:38;97583.16;;;10.65;100.00
68226;BME280;55045;49.410;11.030;2022-10-01T12:49:47;97590.56;;;10.72;100.00
68226;BME280;55045;49.410;11.030;2022-10-01T12:53:04;97564.50;;;10.59;100.00
68226;BME280;55045;49.410;11.030;2022-10-01T12:56:15;97578.09;;;10.78;100.00
68226;BME280;55045;49.410;11.030;2022-10-01T12:59:38;97578.28;;;10.75;100.00
68226;BME280;55045;49.410;11.030;2022-10-01T13:03:13;97555.03;;;10.74;100.00
68226;BME280;55045;49.410;11.030;2022-10-01T13:06:34;97586.81;;;10.77;100.00
68226;BME280;55045;49.410;11.030;2022-10-01T13:09:45;97595.41;;;10.78;100.00
68226;BME280;55045;49.410;11.030;2022-10-01T13:12:58;97602.28;;;10.79;100.00
68226;BME280;55045;49.410;11.030;2022-10-01T13:16:07;97616.06;;;10.79;100.00
68226;BME280;55045;49.410;11.030;2022-10-01T13:19:16;97618.53;;;10.96;100.00
68226;BME280;55045;49.410;11.030;2022-10-01T13:22:28;97608.56;;;10.75;100.00
68226;BME280;55045;49.410;11.030;2022-10-01T13:25:37;97620.94;;;10.70;100.00
68226;BME280;55045;49.410;11.030;2022-10-01T13:29:05;97632.56;;;10.62;100.00
68226;BME280;55045;49.410;11.030;2022-10-01T13:32:26;97637.84;;;10.61;100.00
68226;BME280;55045;49.410;11.030;2022-10-01T13:35:33;97626.81;;;10.73;100.00
68226;BME280;55045;49.410;11.030;2022-10-01T13:38:41;97642.44;;;10.72;100.00
68226;BME280;55045;49.410;11.030;2022-10-01T13:41:44;97618.97;;;10.59;100.00
68226;BME280;55045;49.410;11.030;2022-10-01T13:44:54;97610.34;;;10.58;100.00
68226;BME280;55045;49.410;11.030;2022-10-01T13:48:06;97612.38;;;10.53;100.00
68226;BME280;55045;49.410;11.030;2022-10-01T13:51:12;97616.44;;;10.73;100.00
68226;BME280;55045;49.410;11.030;2022-10-01T13:54:22;97638.59;;;10.79;100.00
68226;BME280;55045;49.410;11.030;2022-10-01T13:57:33;97629.78;;;10.81;100.00
68226;BME280;55045;49.410;11.030;2022-10-01T14:00:47;97625.53;;;10.80;100.00
68226;BME280;55045;49.410;11.030;2022-10-01T14:03:55;97626.56;;;10.92;100.00
68226;BME280;55045;49.410;11.030;2022-10-01T14:07:11;97639.41;;;10.95;100.00
68226;BME280;55045;49.410;11.030;2022-10-01T14:10:17;97638.81;;;10.90;100.00
68226;BME280;55045;49.410;11.030;2022-10-01T14:13:21;97566.84;;;10.63;100.00
68226;BME280;55045;49.410;11.030;2022-10-01T14:16:44;97640.16;;;10.81;100.00
68226;BME280;55045;49.410;11.030;2022-10-01T14:19:49;97628.22;;;11.09;100.00
68226;BME280;55045;49.410;11.030;2022-10-01T14:23:04;97620.25;;;10.82;100.00
68226;BME280;55045;49.410;11.030;2022-10-01T14:26:16;97621.63;;;10.73;100.00
68226;BME280;55045;49.410;11.030;2022-10-01T14:29:40;97620.63;;;10.76;100.00
68226;BME280;55045;49.410;11.030;2022-10-01T14:33:08;97630.28;;;10.88;100.00
68226;BME280;55045;49.410;11.030;2022-10-01T14:36:16;97625.41;;;10.98;100.00
68226;BME280;55045;49.410;11.030;2022-10-01T14:39:23;97625.13;;;11.02;100.00
68226;BME280;55045;49.410;11.030;2022-10-01T14:42:26;97627.38;;;11.08;100.00
68226;BME280;55045;49.410;11.030;2022-10-01T14:45:30;97639.94;;;11.00;100.00
68226;BME280;55045;49.410;11.030;2022-10-01T14:48:34;97606.59;;;10.94;100.00
68226;BME280;55045;49.410;11.030;2022-10-01T14:51:48;97611.84;;;10.92;100.00
68226;BME280;55045;49.410;11.030;2022-10-01T14:54:59;97629.38;;;11.03;100.00
68226;BME280;55045;49.410;11.030;2022-10-01T14:58:03;97630.19;;;11.19;100.00
68226;BME280;55045;49.410;11.030;2022-10-01T15:01:16;97642.28;;;11.35;100.00
68226;BME280;55045;49.410;11.030;2022-10-01T15:04:20;97640.31;;;11.38;100.00
68226;BME280;55045;49.410;11.030;2022-10-01T15:07:26;97636.25;;;11.48;100.00
68226;BME280;55045;49.410;11.030;2022-10-01T15:10:31;97637.88;;;11.65;100.00
68226;BME280;55045;49.410;11.030;2022-10-01T15:13:37;97644.25;;;11.74;100.00
68226;BME280;55045;49.410;11.030;2022-10-01T15:16:42;97642.94;;;11.52;100.00
68226;BME280;55045;49.410;11.030;2022-10-01T15:19:48;97640.25;;;11.54;100.00
68226;BME280;55045;49.410;11.030;2022-10-01T15:22:56;97642.69;;;11.57;100.00
68226;BME280;55045;49.410;11.030;2022-10-01T15:26:06;97630.63;;;11.56;100.00
68226;BME280;55045;49.410;11.030;2022-10-01T15:29:12;97654.91;;;11.69;100.00
68226;BME280;55045;49.410;11.030;2022-10-01T15:35:10;97651.75;;;11.64;100.00
68226;BME280;55045;49.410;11.030;2022-10-01T15:38:15;97656.03;;;11.65;100.00
68226;BME280;55045;49.410;11.030;2022-10-01T15:41:21;97667.53;;;11.61;100.00
68226;BME280;55045;49.410;11.030;2022-10-01T15:44:39;97671.41;;;11.54;100.00
68226;BME280;55045;49.410;11.030;2022-10-01T15:47:47;97659.19;;;11.56;100.00
68226;BME280;55045;49.410;11.030;2022-10-01T15:50:58;97664.84;;;11.63;100.00
68226;BME280;55045;49.410;11.030;2022-10-01T15:54:05;97420.00;;;9.87;100.00
68226;BME280;55045;49.410;11.030;2022-10-01T15:57:15;97675.31;;;11.61;100.00
68226;BME280;55045;49.410;11.030;2022-10-01T16:00:23;97676.59;;;11.54;100.00
68226;BME280;55045;49.410;11.030;2022-10-01T16:03:29;97679.97;;;11.56;100.00
68226;BME280;55045;49.410;11.030;2022-10-01T16:06:38;97686.00;;;11.57;100.00
68226;BME280;55045;49.410;11.030;2022-10-01T16:09:59;97686.97;;;11.54;100.00
68226;BME280;55045;49.410;11.030;2022-10-01T16:13:34;97703.44;;;11.54;100.00
68226;BME280;55045;49.410;11.030;2022-10-01T16:16:40;97713.44;;;11.46;100.00
68226;BME280;55045;49.410;11.030;2022-10-01T16:19:45;97709.22;;;11.44;100.00
68226;BME280;55045;49.410;11.030;2022-10-01T16:22:50;97721.66;;;11.39;100.00
68226;BME280;55045;49.410;11.030;2022-10-01T16:25:53;97697.78;;;11.32;100.00
68226;BME280;55045;49.410;11.030;2022-10-01T16:29:01;97723.91;;;11.45;100.00
68226;BME280;55045;49.410;11.030;2022-10-01T16:32:10;97714.94;;;11.65;100.00